createdAt,value
2018-05-16T00:00:09.416Z,28.23
2018-05-16T00:02:42.783Z,22.40
2018-05-16T00:05:15.431Z,24.27
2018-05-16T00:07:48.046Z,20.57
2018-05-16T00:10:20.671Z,23.00
2018-05-16T00:12:53.275Z,26.87
2018-05-16T00:15:25.915Z,21.30
2018-05-16T00:17:58.515Z,24.67
2018-05-16T00:20:31.135Z,23.20
2018-05-16T00:23:03.766Z,26.40
2018-05-16T00:25:36.447Z,28.63
2018-05-16T00:28:09.802Z,26.70
2018-05-16T00:30:42.440Z,26.47
2018-05-16T00:33:15.802Z,27.20
2018-05-16T00:35:48.435Z,30.50
2018-05-16T00:38:21.047Z,29.17
2018-05-16T00:40:53.687Z,28.60
2018-05-16T00:43:26.290Z,29.73
2018-05-16T00:45:58.926Z,30.93
2018-05-16T00:48:31.538Z,33.23
2018-05-16T00:51:15.940Z,27.73
2018-05-16T00:53:48.534Z,33.57
2018-05-16T00:56:21.179Z,33.77
2018-05-16T00:58:53.871Z,29.97
2018-05-16T01:01:26.509Z,29.17
2018-05-16T01:03:59.059Z,34.63
2018-05-16T01:06:31.674Z,28.83
2018-05-16T01:09:04.279Z,32.93
2018-05-16T01:11:37.112Z,31.13
2018-05-16T01:14:10.517Z,30.20
2018-05-16T01:16:43.155Z,30.30
2018-05-16T01:19:15.751Z,30.77
2018-05-16T01:21:48.395Z,34.83
2018-05-16T01:24:21.758Z,32.40
2018-05-16T01:26:54.388Z,32.13
2018-05-16T01:29:27.751Z,28.77
2018-05-16T01:32:00.398Z,31.23
2018-05-16T01:34:33.792Z,37.33
2018-05-16T01:37:06.431Z,42.03
2018-05-16T01:39:39.791Z,30.50
2018-05-16T01:42:12.423Z,35.53
2018-05-16T01:44:45.020Z,29.27
2018-05-16T01:47:17.638Z,38.50
2018-05-16T01:49:50.234Z,36.27
2018-05-16T01:52:22.877Z,38.07
2018-05-16T01:54:55.481Z,34.63
2018-05-16T01:57:28.119Z,33.30
2018-05-16T02:00:00.731Z,42.77
2018-05-16T02:02:34.159Z,46.50
2018-05-16T02:05:06.833Z,38.43
2018-05-16T02:07:39.472Z,57.97
2018-05-16T02:10:12.073Z,43.17
2018-05-16T02:12:44.694Z,29.60
2018-05-16T02:15:17.290Z,58.90
2018-05-16T02:17:49.931Z,43.60
2018-05-16T02:20:22.531Z,51.77
2018-05-16T02:22:55.147Z,33.53
2018-05-16T02:25:27.748Z,33.93
2018-05-16T02:28:00.371Z,49.17
2018-05-16T02:30:33.156Z,72.70
2018-05-16T02:33:06.552Z,43.97
2018-05-16T02:35:39.151Z,34.67
2018-05-16T02:38:12.561Z,37.80
2018-05-16T02:40:45.163Z,34.13
2018-05-16T02:43:18.575Z,51.70
2018-05-16T02:45:51.239Z,60.67
2018-05-16T02:48:23.872Z,51.27
2018-05-16T02:50:56.484Z,37.40
2018-05-16T02:53:29.131Z,45.67
2018-05-16T02:56:02.490Z,35.13
2018-05-16T02:58:35.143Z,26.63
2018-05-16T03:01:08.508Z,36.60
2018-05-16T03:03:41.148Z,53.50
2018-05-16T03:06:13.747Z,42.17
2018-05-16T03:08:46.384Z,42.57
2018-05-16T03:11:18.987Z,44.97
2018-05-16T03:13:51.654Z,60.13
2018-05-16T03:16:24.287Z,29.73
2018-05-16T03:18:57.689Z,34.47
2018-05-16T03:21:30.286Z,42.27
2018-05-16T03:24:03.823Z,39.50
2018-05-16T03:26:36.415Z,38.03
2018-05-16T03:29:09.027Z,41.20
2018-05-16T03:31:41.651Z,33.87
2018-05-16T03:34:15.786Z,35.63
2018-05-16T03:36:48.379Z,38.17
2018-05-16T03:39:21.016Z,31.67
2018-05-16T03:41:53.620Z,32.43
2018-05-16T03:44:26.268Z,35.53
2018-05-16T03:46:59.691Z,32.50
2018-05-16T03:49:33.099Z,50.50
2018-05-16T03:52:06.534Z,45.00
2018-05-16T03:54:39.131Z,42.20
2018-05-16T03:57:23.787Z,44.07
2018-05-16T04:00:08.246Z,43.67
2018-05-16T04:02:52.638Z,41.40
2018-05-16T04:05:25.259Z,51.60
2018-05-16T04:07:57.884Z,33.13
2018-05-16T04:10:31.286Z,58.57
2018-05-16T04:13:03.894Z,69.13
2018-05-16T04:15:37.299Z,40.67
2018-05-16T04:18:10.664Z,49.13
2018-05-16T04:20:43.287Z,46.43
2018-05-16T04:23:15.888Z,57.27
2018-05-16T04:25:49.291Z,48.03
2018-05-16T04:28:21.939Z,42.10
2018-05-16T04:30:55.343Z,38.63
2018-05-16T04:33:27.948Z,40.07
2018-05-16T04:36:00.598Z,44.97
2018-05-16T04:38:33.963Z,53.30
2018-05-16T04:41:06.596Z,41.17
2018-05-16T04:43:39.194Z,39.03
2018-05-16T04:46:11.813Z,38.00
2018-05-16T04:48:44.416Z,37.93
2018-05-16T04:51:17.055Z,40.90
2018-05-16T04:53:50.423Z,39.70
2018-05-16T04:56:23.060Z,44.27
2018-05-16T04:58:55.680Z,55.23
2018-05-16T05:01:28.315Z,52.50
2018-05-16T05:04:00.914Z,36.80
2018-05-16T05:06:33.554Z,46.77
2018-05-16T05:09:06.159Z,40.87
2018-05-16T05:11:38.812Z,37.67
2018-05-16T05:14:12.180Z,35.93
2018-05-16T05:16:44.835Z,57.57
2018-05-16T05:19:17.436Z,39.50
2018-05-16T05:21:50.063Z,57.47
2018-05-16T05:24:22.663Z,39.80
2018-05-16T05:26:55.300Z,39.30
2018-05-16T05:29:27.891Z,48.63
2018-05-16T05:32:00.539Z,47.73
2018-05-16T05:34:33.175Z,56.27
2018-05-16T05:37:06.551Z,40.63
2018-05-16T05:39:39.153Z,41.93
2018-05-16T05:42:12.555Z,42.27
2018-05-16T05:44:45.153Z,57.17
2018-05-16T05:47:18.541Z,50.23
2018-05-16T05:49:51.143Z,37.57
2018-05-16T05:52:23.763Z,44.43
2018-05-16T05:54:57.133Z,41.47
2018-05-16T05:57:29.781Z,34.03
2018-05-16T06:00:02.406Z,53.97
2018-05-16T06:02:35.053Z,46.33
2018-05-16T06:05:08.459Z,126.03
2018-05-16T06:07:41.848Z,39.00
2018-05-16T06:10:14.457Z,32.43
2018-05-16T06:12:47.188Z,35.20
2018-05-16T06:15:19.726Z,29.77
2018-05-16T06:17:53.127Z,31.37
2018-05-16T06:20:26.619Z,29.37
2018-05-16T06:22:59.259Z,31.27
2018-05-16T06:25:31.854Z,28.60
2018-05-16T06:28:04.487Z,27.07
2018-05-16T06:30:37.099Z,30.23
2018-05-16T06:33:09.748Z,29.60
2018-05-16T06:35:42.351Z,33.20
2018-05-16T06:38:14.978Z,28.47
2018-05-16T06:40:47.580Z,31.73
2018-05-16T06:43:20.986Z,31.77
2018-05-16T06:45:53.717Z,26.90
2018-05-16T06:48:26.304Z,48.43
2018-05-16T06:50:58.903Z,34.77
2018-05-16T06:53:31.547Z,31.97
2018-05-16T06:56:04.147Z,30.67
2018-05-16T06:58:36.786Z,27.83
2018-05-16T07:01:09.389Z,28.33
2018-05-16T07:03:42.287Z,28.30
2018-05-16T07:06:14.891Z,30.50
2018-05-16T07:08:47.539Z,28.03
2018-05-16T07:11:20.140Z,24.10
2018-05-16T07:13:52.791Z,22.63
2018-05-16T07:16:25.395Z,25.33
2018-05-16T07:18:58.020Z,25.90
2018-05-16T07:21:31.603Z,23.93
2018-05-16T07:24:04.229Z,26.03
2018-05-16T07:26:36.831Z,28.57
2018-05-16T07:29:10.215Z,29.73
2018-05-16T07:31:42.819Z,22.77
2018-05-16T07:34:16.238Z,30.83
2018-05-16T07:36:48.835Z,23.80
2018-05-16T07:39:22.248Z,18.70
2018-05-16T07:41:55.622Z,23.33
2018-05-16T07:44:28.264Z,23.93
2018-05-16T07:47:00.891Z,25.90
2018-05-16T07:49:33.511Z,18.20
2018-05-16T07:52:06.884Z,19.83
2018-05-16T07:54:39.508Z,14.07
2018-05-16T07:57:12.887Z,18.90
2018-05-16T07:59:45.535Z,17.40
2018-05-16T08:02:18.622Z,16.93
2018-05-16T08:04:52.039Z,16.03
2018-05-16T08:07:32.920Z,16.07
2018-05-16T08:10:06.336Z,14.70
2018-05-16T08:12:39.703Z,18.33
2018-05-16T08:15:12.328Z,13.80
2018-05-16T08:17:45.695Z,15.97
2018-05-16T08:20:18.317Z,11.90
2018-05-16T08:22:50.922Z,14.20
2018-05-16T08:25:24.299Z,13.80
2018-05-16T08:27:56.899Z,16.00
2018-05-16T08:30:29.515Z,14.63
2018-05-16T08:33:02.888Z,12.37
2018-05-16T08:35:35.515Z,12.57
2018-05-16T08:38:08.131Z,14.73
2018-05-16T08:40:40.775Z,14.40
2018-05-16T08:43:13.379Z,16.87
2018-05-16T08:45:46.789Z,13.30
2018-05-16T08:48:19.382Z,9.80
2018-05-16T08:50:52.022Z,14.73
2018-05-16T08:53:24.621Z,11.00
2018-05-16T08:55:57.254Z,14.60
2018-05-16T08:58:30.622Z,14.37
2018-05-16T09:01:03.244Z,11.97
2018-05-16T09:03:35.843Z,9.63
2018-05-16T09:06:09.227Z,14.73
2018-05-16T09:08:41.826Z,12.03
2018-05-16T09:11:14.454Z,17.93
2018-05-16T09:13:47.050Z,16.50
2018-05-16T09:16:19.675Z,12.03
2018-05-16T09:18:52.275Z,17.03
2018-05-16T09:21:24.903Z,16.20
2018-05-16T09:23:58.264Z,13.93
2018-05-16T09:26:30.892Z,12.43
2018-05-16T09:29:03.495Z,13.17
2018-05-16T09:31:36.906Z,9.13
2018-05-16T09:34:10.286Z,13.80
2018-05-16T09:36:42.926Z,8.63
2018-05-16T09:39:15.555Z,9.80
2018-05-16T09:41:48.186Z,8.07
2018-05-16T09:44:21.546Z,19.47
2018-05-16T09:46:54.179Z,31.03
2018-05-16T09:49:26.780Z,30.07
2018-05-16T09:52:00.189Z,16.90
2018-05-16T09:54:33.567Z,39.93
2018-05-16T09:57:06.212Z,19.13
2018-05-16T09:59:38.877Z,16.40
2018-05-16T10:02:11.538Z,10.63
2018-05-16T10:04:44.140Z,12.23
2018-05-16T10:07:16.764Z,13.27
2018-05-16T10:09:50.138Z,8.37
2018-05-16T10:12:22.768Z,5.90
2018-05-16T10:14:56.128Z,9.83
2018-05-16T10:17:28.849Z,5.93
2018-05-16T10:20:01.455Z,7.53
2018-05-16T10:22:34.107Z,7.50
2018-05-16T10:25:06.710Z,5.60
2018-05-16T10:27:39.367Z,6.00
2018-05-16T10:30:11.971Z,8.20
2018-05-16T10:32:44.604Z,4.93
2018-05-16T10:35:17.979Z,3.90
2018-05-16T10:37:50.620Z,9.10
2018-05-16T10:40:23.993Z,4.40
2018-05-16T10:42:56.617Z,4.80
2018-05-16T10:45:29.979Z,4.80
2018-05-16T10:48:02.641Z,3.83
2018-05-16T10:50:35.258Z,6.30
2018-05-16T10:53:07.879Z,6.13
2018-05-16T10:55:40.488Z,3.87
2018-05-16T10:58:13.889Z,5.20
2018-05-16T11:00:47.284Z,3.87
2018-05-16T11:03:19.930Z,4.93
2018-05-16T11:05:52.553Z,7.60
2018-05-16T11:08:25.233Z,4.90
2018-05-16T11:10:57.857Z,4.87
2018-05-16T11:13:30.500Z,4.53
2018-05-16T11:16:03.090Z,4.80
2018-05-16T11:18:35.695Z,7.93
2018-05-16T11:21:08.298Z,7.20
2018-05-16T11:23:40.961Z,7.53
2018-05-16T11:26:13.559Z,4.80
2018-05-16T11:28:46.319Z,5.60
2018-05-16T11:31:19.695Z,12.17
2018-05-16T11:33:52.344Z,5.87
2018-05-16T11:36:25.000Z,13.47
2018-05-16T11:38:58.439Z,24.47
2018-05-16T11:41:31.072Z,17.27
2018-05-16T11:44:03.747Z,6.70
2018-05-16T11:46:36.347Z,5.67
2018-05-16T11:49:08.973Z,7.30
2018-05-16T11:51:41.570Z,10.07
2018-05-16T11:54:14.971Z,10.73
2018-05-16T11:56:47.577Z,10.40
2018-05-16T11:59:21.023Z,10.30
2018-05-16T12:01:53.619Z,5.53
2018-05-16T12:04:26.240Z,15.70
2018-05-16T12:06:58.860Z,10.87
2018-05-16T12:09:32.308Z,9.77
2018-05-16T12:12:04.918Z,12.60
2018-05-16T12:14:37.549Z,8.83
2018-05-16T12:17:10.929Z,16.47
2018-05-16T12:19:43.564Z,7.60
2018-05-16T12:22:16.164Z,5.77
2018-05-16T12:24:48.794Z,7.63
2018-05-16T12:27:21.413Z,5.17
2018-05-16T12:29:54.036Z,5.87
2018-05-16T12:32:26.627Z,6.07
2018-05-16T12:34:59.244Z,7.30
2018-05-16T12:37:31.852Z,10.00
2018-05-16T12:40:04.468Z,4.73
2018-05-16T12:42:37.832Z,6.20
2018-05-16T12:45:10.480Z,5.47
2018-05-16T12:47:43.095Z,5.07
2018-05-16T12:50:15.734Z,4.57
2018-05-16T12:52:48.329Z,9.00
2018-05-16T12:55:20.978Z,14.57
2018-05-16T12:57:53.599Z,6.70
2018-05-16T13:00:26.235Z,8.27
2018-05-16T13:02:58.838Z,6.43
2018-05-16T13:05:31.483Z,15.73
2018-05-16T13:08:04.079Z,54.83
2018-05-16T13:10:36.709Z,30.10
2018-05-16T13:13:09.315Z,32.33
2018-05-16T13:15:41.979Z,29.67
2018-05-16T13:18:15.387Z,10.63
2018-05-16T13:20:48.012Z,19.23
2018-05-16T13:23:20.616Z,9.70
2018-05-16T13:25:53.260Z,24.97
2018-05-16T13:28:25.860Z,10.10
2018-05-16T13:30:58.496Z,26.30
2018-05-16T13:33:31.103Z,9.47
2018-05-16T13:36:03.753Z,23.17
2018-05-16T13:38:36.382Z,14.13
2018-05-16T13:41:09.024Z,14.60
2018-05-16T13:43:42.712Z,17.23
2018-05-16T13:46:15.352Z,9.53
2018-05-16T13:48:47.967Z,11.03
2018-05-16T13:51:20.611Z,13.30
2018-05-16T13:53:53.319Z,28.03
2018-05-16T13:56:25.957Z,18.00
2018-05-16T13:58:58.563Z,37.73
2018-05-16T14:01:31.190Z,20.47
2018-05-16T14:04:03.793Z,13.17
2018-05-16T14:06:36.495Z,13.53
2018-05-16T14:09:09.060Z,19.03
2018-05-16T14:11:41.717Z,41.27
2018-05-16T14:14:14.340Z,12.93
2018-05-16T14:16:47.760Z,56.30
2018-05-16T14:19:20.380Z,20.50
2018-05-16T14:21:53.035Z,22.53
2018-05-16T14:24:26.406Z,12.50
2018-05-16T14:26:59.027Z,6.30
2018-05-16T14:29:31.647Z,11.13
2018-05-16T14:32:04.303Z,7.70
2018-05-16T14:34:37.702Z,10.33
2018-05-16T14:37:10.361Z,15.97
2018-05-16T14:39:42.953Z,12.17
2018-05-16T14:42:15.596Z,7.30
2018-05-16T14:44:48.965Z,6.97
2018-05-16T14:47:21.583Z,7.37
2018-05-16T14:49:54.180Z,12.03
2018-05-16T14:52:26.829Z,17.73
2018-05-16T14:55:00.540Z,6.90
2018-05-16T14:57:33.194Z,8.87
2018-05-16T15:00:06.572Z,5.93
2018-05-16T15:02:39.215Z,6.67
2018-05-16T15:05:11.828Z,10.10
2018-05-16T15:07:44.452Z,9.40
2018-05-16T15:10:17.051Z,7.77
2018-05-16T15:12:53.175Z,6.53
2018-05-16T15:15:25.787Z,5.80
2018-05-16T15:17:58.436Z,9.60
2018-05-16T15:20:31.035Z,6.67
2018-05-16T15:23:03.679Z,5.97
2018-05-16T15:25:36.270Z,5.67
2018-05-16T15:28:08.911Z,8.20
2018-05-16T15:30:41.514Z,6.90
2018-05-16T15:33:14.131Z,6.83
2018-05-16T15:35:46.736Z,6.83
2018-05-16T15:38:19.358Z,6.47
2018-05-16T15:40:52.732Z,5.70
2018-05-16T15:43:25.349Z,6.07
2018-05-16T15:45:58.720Z,8.07
2018-05-16T15:48:31.367Z,6.00
2018-05-16T15:51:03.968Z,6.93
2018-05-16T15:53:36.607Z,9.87
2018-05-16T15:56:09.217Z,17.10
2018-05-16T15:58:42.622Z,6.67
2018-05-16T16:01:15.246Z,6.40
2018-05-16T16:03:47.868Z,9.63
2018-05-16T16:06:20.471Z,6.20
2018-05-16T16:08:53.099Z,11.23
2018-05-16T16:11:26.460Z,7.83
2018-05-16T16:13:59.185Z,8.17
2018-05-16T16:16:31.704Z,7.77
2018-05-16T16:19:04.342Z,20.63
2018-05-16T16:21:36.931Z,15.23
2018-05-16T16:24:09.573Z,8.40
2018-05-16T16:26:42.185Z,16.83
2018-05-16T16:29:14.825Z,10.90
2018-05-16T16:31:47.450Z,8.97
2018-05-16T16:34:20.115Z,9.20
2018-05-16T16:36:52.720Z,7.03
2018-05-16T16:39:26.127Z,9.27
2018-05-16T16:41:58.759Z,9.50
2018-05-16T16:44:31.410Z,14.07
2018-05-16T16:47:04.792Z,9.43
2018-05-16T16:49:37.443Z,5.87
2018-05-16T16:52:10.052Z,12.03
2018-05-16T16:54:42.687Z,7.63
2018-05-16T16:57:15.388Z,9.50
2018-05-16T16:59:47.938Z,11.53
2018-05-16T17:02:20.533Z,7.60
2018-05-16T17:04:53.151Z,8.63
2018-05-16T17:07:25.762Z,14.97
2018-05-16T17:09:58.428Z,10.23
2018-05-16T17:12:31.024Z,8.30
2018-05-16T17:15:03.676Z,20.13
2018-05-16T17:17:36.321Z,7.53
2018-05-16T17:20:09.012Z,9.47
2018-05-16T17:22:41.620Z,7.87
2018-05-16T17:25:15.048Z,10.13
2018-05-16T17:27:47.639Z,7.07
2018-05-16T17:30:20.365Z,10.47
2018-05-16T17:32:52.898Z,13.67
2018-05-16T17:35:26.310Z,8.20
2018-05-16T17:37:58.927Z,8.07
2018-05-16T17:40:31.565Z,8.83
2018-05-16T17:43:04.172Z,13.63
2018-05-16T17:45:37.567Z,10.87
2018-05-16T17:48:10.162Z,7.13
2018-05-16T17:50:42.819Z,10.10
2018-05-16T17:53:15.428Z,11.77
2018-05-16T17:55:48.954Z,8.93
2018-05-16T17:58:21.580Z,9.33
2018-05-16T18:00:54.310Z,9.40
2018-05-16T18:03:27.631Z,9.83
2018-05-16T18:06:00.264Z,8.20
2018-05-16T18:08:33.632Z,8.43
2018-05-16T18:11:06.287Z,9.60
2018-05-16T18:13:59.754Z,7.63
2018-05-16T18:16:44.288Z,8.93
2018-05-16T18:19:17.842Z,12.60
2018-05-16T18:21:50.499Z,10.87
2018-05-16T18:24:23.136Z,9.07
2018-05-16T18:26:55.762Z,9.07
2018-05-16T18:29:28.418Z,11.60
2018-05-16T18:32:01.023Z,9.20
2018-05-16T18:34:33.631Z,8.47
2018-05-16T18:37:06.272Z,9.87
2018-05-16T18:39:38.893Z,11.93
2018-05-16T18:42:16.131Z,8.50
2018-05-16T18:44:48.747Z,10.23
2018-05-16T18:47:21.397Z,8.43
2018-05-16T18:49:54.002Z,9.77
2018-05-16T18:52:26.687Z,11.63
2018-05-16T18:54:59.287Z,9.60
2018-05-16T18:57:31.928Z,9.83
2018-05-16T19:00:04.536Z,10.87
2018-05-16T19:02:37.179Z,11.27
2018-05-16T19:05:09.786Z,13.43
2018-05-16T19:07:43.194Z,10.07
2018-05-16T19:10:16.551Z,15.20
2018-05-16T19:12:49.187Z,17.10
2018-05-16T19:15:22.547Z,10.70
2018-05-16T19:17:55.188Z,14.10
2018-05-16T19:20:27.787Z,14.50
2018-05-16T19:23:00.437Z,12.53
2018-05-16T19:25:33.042Z,13.87
2018-05-16T19:28:05.671Z,9.93
2018-05-16T19:30:39.031Z,14.57
2018-05-16T19:33:11.655Z,16.60
2018-05-16T19:35:45.015Z,14.70
2018-05-16T19:38:17.638Z,14.93
2018-05-16T19:40:51.015Z,15.60
2018-05-16T19:43:23.644Z,13.70
2018-05-16T19:45:56.265Z,20.50
2018-05-16T19:48:28.935Z,15.93
2018-05-16T19:51:01.551Z,15.30
2018-05-16T19:53:34.195Z,11.67
2018-05-16T19:56:06.807Z,9.83
2018-05-16T19:58:40.492Z,9.73
2018-05-16T20:01:13.804Z,10.70
2018-05-16T20:03:46.428Z,10.50
2018-05-16T20:06:19.041Z,10.43
2018-05-16T20:08:51.655Z,13.17
2018-05-16T20:11:24.247Z,9.93
2018-05-16T20:13:57.646Z,11.23
2018-05-16T20:16:30.281Z,10.80
2018-05-16T20:19:03.888Z,14.83
2018-05-16T20:21:36.512Z,11.07
2018-05-16T20:24:09.920Z,12.43
2018-05-16T20:26:43.295Z,7.67
2018-05-16T20:29:15.984Z,8.30
2018-05-16T20:31:48.557Z,7.63
2018-05-16T20:34:21.203Z,8.03
2018-05-16T20:36:53.808Z,7.63
2018-05-16T20:39:30.131Z,8.47
2018-05-16T20:42:02.740Z,9.63
2018-05-16T20:44:35.380Z,8.20
2018-05-16T20:47:07.995Z,6.90
2018-05-16T20:49:40.691Z,9.83
2018-05-16T20:52:13.300Z,7.77
2018-05-16T20:54:45.923Z,7.97
2018-05-16T20:57:19.283Z,8.13
2018-05-16T20:59:51.923Z,7.43
2018-05-16T21:02:24.519Z,8.10
2018-05-16T21:04:57.908Z,6.70
2018-05-16T21:07:30.511Z,7.40
2018-05-16T21:10:03.123Z,8.70
2018-05-16T21:12:35.729Z,9.63
2018-05-16T21:15:08.364Z,7.60
2018-05-16T21:17:40.967Z,7.33
2018-05-16T21:20:13.720Z,6.97
2018-05-16T21:22:46.320Z,6.83
2018-05-16T21:25:18.953Z,7.00
2018-05-16T21:27:52.339Z,6.23
2018-05-16T21:30:24.986Z,6.07
2018-05-16T21:32:57.586Z,8.83
2018-05-16T21:35:30.251Z,7.87
2018-05-16T21:38:03.628Z,7.17
2018-05-16T21:40:36.259Z,6.80
2018-05-16T21:43:08.846Z,6.57
2018-05-16T21:45:42.255Z,8.70
2018-05-16T21:48:15.615Z,7.63
2018-05-16T21:50:48.247Z,8.30
2018-05-16T21:53:21.602Z,8.83
2018-05-16T21:55:54.238Z,8.87
2018-05-16T21:58:26.843Z,7.40
2018-05-16T22:01:00.233Z,6.83
2018-05-16T22:03:32.822Z,8.63
2018-05-16T22:06:05.456Z,7.37
2018-05-16T22:08:38.069Z,7.07
2018-05-16T22:11:10.692Z,7.20
2018-05-16T22:13:43.283Z,6.47
2018-05-16T22:16:15.915Z,6.83
2018-05-16T22:18:48.504Z,8.27
2018-05-16T22:21:21.146Z,7.93
2018-05-16T22:23:53.746Z,10.00
2018-05-16T22:26:26.384Z,8.27
2018-05-16T22:28:58.992Z,6.97
2018-05-16T22:31:37.400Z,6.60
2018-05-16T22:34:15.604Z,7.70
2018-05-16T22:36:53.856Z,8.07
2018-05-16T22:39:32.123Z,8.30
2018-05-16T22:42:10.408Z,6.40
2018-05-16T22:44:49.467Z,8.53
2018-05-16T22:47:22.078Z,7.43
2018-05-16T22:49:54.675Z,7.97
2018-05-16T22:52:27.302Z,10.20
2018-05-16T22:55:00.659Z,7.63
2018-05-16T22:57:33.314Z,8.13
2018-05-16T23:00:05.904Z,8.60
2018-05-16T23:02:38.545Z,9.00
2018-05-16T23:05:11.167Z,8.90
2018-05-16T23:07:51.175Z,9.97
2018-05-16T23:10:23.767Z,7.97
2018-05-16T23:12:56.556Z,7.80
2018-05-16T23:15:29.160Z,6.97
2018-05-16T23:18:01.791Z,10.53
2018-05-16T23:20:34.387Z,9.57
2018-05-16T23:23:07.796Z,9.03
2018-05-16T23:25:41.164Z,8.43
2018-05-16T23:28:13.782Z,9.00
2018-05-16T23:30:46.454Z,12.70
2018-05-16T23:33:19.051Z,8.90
2018-05-16T23:35:51.659Z,8.83
2018-05-16T23:38:24.291Z,11.67
2018-05-16T23:40:56.903Z,10.40
2018-05-16T23:43:29.535Z,12.37
2018-05-16T23:46:02.139Z,8.77
2018-05-16T23:48:34.769Z,7.93
2018-05-16T23:51:07.371Z,10.20
2018-05-16T23:53:39.988Z,8.67
2018-05-16T23:56:12.584Z,9.40
2018-05-16T23:58:45.210Z,8.77
